createdAt,value
2023-04-13T00:00:44.857Z,6.10
2023-04-13T00:03:17.535Z,6.20
2023-04-13T00:05:46.663Z,6.20
2023-04-13T00:08:13.917Z,6.20
2023-04-13T00:10:42.017Z,6.20
2023-04-13T00:13:11.392Z,6.10
2023-04-13T00:15:42.239Z,6.10
2023-04-13T00:18:10.563Z,6.10
2023-04-13T00:20:38.748Z,6.10
2023-04-13T00:23:05.734Z,6.00
2023-04-13T00:25:32.714Z,6.00
2023-04-13T00:28:03.410Z,6.00
2023-04-13T00:30:31.158Z,6.00
2023-04-13T00:32:59.500Z,6.00
2023-04-13T00:35:27.058Z,6.00
2023-04-13T00:37:54.130Z,6.00
2023-04-13T00:40:21.494Z,6.00
2023-04-13T00:42:49.933Z,6.00
2023-04-13T00:45:21.014Z,6.00
2023-04-13T00:47:50.634Z,6.00
2023-04-13T00:50:21.384Z,6.00
2023-04-13T00:52:49.285Z,6.00
2023-04-13T00:55:21.806Z,6.10
2023-04-13T00:57:53.053Z,6.10
2023-04-13T01:00:21.349Z,6.10
2023-04-13T01:02:48.397Z,6.10
2023-04-13T01:05:17.378Z,6.10
2023-04-13T01:07:56.559Z,6.20
2023-04-13T01:10:29.077Z,6.20
2023-04-13T01:13:04.801Z,6.20
2023-04-13T01:15:37.236Z,6.30
2023-04-13T01:18:09.056Z,6.30
2023-04-13T01:20:38.123Z,6.30
2023-04-13T01:23:09.789Z,6.20
2023-04-13T01:25:40.211Z,6.20
2023-04-13T01:28:12.040Z,6.10
2023-04-13T01:30:40.042Z,6.10
2023-04-13T01:33:09.080Z,6.10
2023-04-13T01:35:37.080Z,6.10
2023-04-13T01:38:04.321Z,6.10
2023-04-13T01:40:33.140Z,6.10
2023-04-13T01:43:00.163Z,6.10
2023-04-13T01:45:30.479Z,6.00
2023-04-13T01:48:02.576Z,5.90
2023-04-13T01:50:32.012Z,6.00
2023-04-13T01:53:07.918Z,6.00
2023-04-13T01:55:38.610Z,6.10
2023-04-13T01:58:07.080Z,6.10
2023-04-13T02:00:38.513Z,6.10
2023-04-13T02:03:06.852Z,6.20
2023-04-13T02:05:37.166Z,6.30
2023-04-13T02:08:05.394Z,6.40
2023-04-13T02:10:34.084Z,6.40
2023-04-13T02:13:01.576Z,6.30
2023-04-13T02:15:28.880Z,6.30
2023-04-13T02:17:58.010Z,6.20
2023-04-13T02:20:25.271Z,6.20
2023-04-13T02:22:52.133Z,6.20
2023-04-13T02:25:19.360Z,6.10
2023-04-13T02:27:46.242Z,6.10
2023-04-13T02:30:13.799Z,6.10
2023-04-13T02:32:41.665Z,6.10
2023-04-13T02:35:11.329Z,6.00
2023-04-13T02:37:40.078Z,6.00
2023-04-13T02:40:12.806Z,5.90
2023-04-13T02:42:39.785Z,5.90
2023-04-13T02:45:08.739Z,5.90
2023-04-13T02:47:35.705Z,6.00
2023-04-13T02:50:03.054Z,6.00
2023-04-13T02:52:31.553Z,6.00
2023-04-13T02:54:59.009Z,6.00
2023-04-13T02:57:26.036Z,6.00
2023-04-13T02:59:53.309Z,6.00
2023-04-13T03:02:21.189Z,6.10
2023-04-13T03:04:48.831Z,6.00
2023-04-13T03:07:17.467Z,6.00
2023-04-13T03:09:47.245Z,6.00
2023-04-13T03:12:15.179Z,6.10
2023-04-13T03:14:42.122Z,6.00
2023-04-13T03:17:10.113Z,6.00
2023-04-13T03:19:37.127Z,6.00
2023-04-13T03:22:04.791Z,6.00
2023-04-13T03:24:31.697Z,6.00
2023-04-13T03:27:00.307Z,5.90
2023-04-13T03:29:27.197Z,5.90
2023-04-13T03:31:54.878Z,5.90
2023-04-13T03:34:21.806Z,6.00
2023-04-13T03:36:49.184Z,5.90
2023-04-13T03:39:16.129Z,5.90
2023-04-13T03:41:43.057Z,5.90
2023-04-13T03:44:11.515Z,5.90
2023-04-13T03:46:38.845Z,5.90
2023-04-13T03:49:09.295Z,6.00
2023-04-13T03:51:37.027Z,6.00
2023-04-13T03:54:04.407Z,6.10
2023-04-13T03:56:31.777Z,6.10
2023-04-13T03:58:59.060Z,6.10
2023-04-13T04:01:27.518Z,6.10
2023-04-13T04:03:57.283Z,6.10
2023-04-13T04:06:25.305Z,6.10
2023-04-13T04:08:52.225Z,6.20
2023-04-13T04:11:19.787Z,6.20
2023-04-13T04:13:46.633Z,6.20
2023-04-13T04:16:13.937Z,6.20
2023-04-13T04:18:42.534Z,6.30
2023-04-13T04:21:09.906Z,6.50
2023-04-13T04:23:37.889Z,6.50
2023-04-13T04:26:05.556Z,6.50
2023-04-13T04:28:38.421Z,6.50
2023-04-13T04:31:07.430Z,6.50
2023-04-13T04:33:34.400Z,6.50
2023-04-13T04:36:03.066Z,6.40
2023-04-13T04:38:30.467Z,6.40
2023-04-13T04:40:58.006Z,6.40
2023-04-13T04:43:29.805Z,6.40
2023-04-13T04:46:03.476Z,6.50
2023-04-13T04:48:31.540Z,6.50
2023-04-13T04:51:00.309Z,6.60
2023-04-13T04:53:28.651Z,6.60
2023-04-13T04:55:56.297Z,6.60
2023-04-13T04:58:23.211Z,6.70
2023-04-13T05:00:52.581Z,6.70
2023-04-13T05:03:21.122Z,6.80
2023-04-13T05:05:48.558Z,6.90
2023-04-13T05:08:15.592Z,7.00
2023-04-13T05:10:46.613Z,7.10
2023-04-13T05:13:13.822Z,7.20
2023-04-13T05:15:41.272Z,7.30
2023-04-13T05:18:08.175Z,7.50
2023-04-13T05:20:35.552Z,7.50
2023-04-13T05:23:03.106Z,7.60
2023-04-13T05:25:30.762Z,7.60
2023-04-13T05:28:00.493Z,7.70
2023-04-13T05:30:27.425Z,7.70
2023-04-13T05:32:54.346Z,7.70
2023-04-13T05:35:23.748Z,7.80
2023-04-13T05:37:51.042Z,7.80
2023-04-13T05:40:18.999Z,7.80
2023-04-13T05:42:46.552Z,7.80
2023-04-13T05:45:17.417Z,7.80
2023-04-13T05:47:45.554Z,7.90
2023-04-13T05:50:13.380Z,7.90
2023-04-13T05:52:40.282Z,7.90
2023-04-13T05:55:07.797Z,8.00
2023-04-13T05:57:35.087Z,8.10
2023-04-13T06:00:02.300Z,8.20
2023-04-13T06:02:32.228Z,8.20
2023-04-13T06:04:59.797Z,8.40
2023-04-13T06:07:28.107Z,8.40
2023-04-13T06:09:55.075Z,8.30
2023-04-13T06:12:22.093Z,8.30
2023-04-13T06:14:49.030Z,8.40
2023-04-13T06:17:16.304Z,8.50
2023-04-13T06:19:44.647Z,8.40
2023-04-13T06:22:11.929Z,8.40
2023-04-13T06:24:38.877Z,8.40
2023-04-13T06:27:06.158Z,8.50
2023-04-13T06:29:33.100Z,8.70
2023-04-13T06:32:00.345Z,8.70
2023-04-13T06:34:27.487Z,8.60
2023-04-13T06:36:57.610Z,8.50
2023-04-13T06:39:26.518Z,8.60
2023-04-13T06:41:55.063Z,8.70
2023-04-13T06:44:22.005Z,8.90
2023-04-13T06:46:49.393Z,9.00
2023-04-13T06:49:16.430Z,8.90
2023-04-13T06:51:43.782Z,8.90
2023-04-13T06:54:12.427Z,9.00
2023-04-13T06:56:39.488Z,9.00
2023-04-13T06:59:06.860Z,9.10
2023-04-13T07:01:34.006Z,9.10
2023-04-13T07:04:02.775Z,9.30
2023-04-13T07:06:30.215Z,9.30
2023-04-13T07:08:57.371Z,9.40
2023-04-13T07:11:27.434Z,9.40
2023-04-13T07:13:54.424Z,9.60
2023-04-13T07:16:21.826Z,9.70
2023-04-13T07:18:48.901Z,9.80
2023-04-13T07:21:17.540Z,9.50
2023-04-13T07:23:45.472Z,9.40
2023-04-13T07:26:15.862Z,9.30
2023-04-13T07:28:44.166Z,9.40
2023-04-13T07:31:11.835Z,9.40
2023-04-13T07:33:38.826Z,9.50
2023-04-13T07:36:06.965Z,9.50
2023-04-13T07:38:34.020Z,9.50
2023-04-13T07:41:01.131Z,9.70
2023-04-13T07:43:28.315Z,9.80
2023-04-13T07:45:56.600Z,9.80
2023-04-13T07:48:23.546Z,10.00
2023-04-13T07:50:50.507Z,10.00
2023-04-13T07:53:17.453Z,10.00
2023-04-13T07:55:44.357Z,9.90
2023-04-13T07:58:11.225Z,9.90
2023-04-13T08:00:38.450Z,10.00
2023-04-13T08:03:07.546Z,10.30
2023-04-13T08:05:35.512Z,10.20
2023-04-13T08:08:02.427Z,10.20
2023-04-13T08:10:30.462Z,10.30
2023-04-13T08:12:57.504Z,10.30
2023-04-13T08:15:24.860Z,10.30
2023-04-13T08:17:52.316Z,10.30
2023-04-13T08:20:21.221Z,10.50
2023-04-13T08:22:48.132Z,10.50
2023-04-13T08:25:15.623Z,10.50
2023-04-13T08:27:42.456Z,10.40
2023-04-13T08:30:11.605Z,10.50
2023-04-13T08:32:38.635Z,10.40
2023-04-13T08:35:08.097Z,10.20
2023-04-13T08:37:36.850Z,10.30
2023-04-13T08:40:07.798Z,10.40
2023-04-13T08:42:34.769Z,10.50
2023-04-13T08:45:03.799Z,10.40
2023-04-13T08:47:30.872Z,10.50
2023-04-13T08:49:59.232Z,10.50
2023-04-13T08:52:27.775Z,10.50
2023-04-13T08:55:02.503Z,10.60
2023-04-13T08:57:30.064Z,10.60
2023-04-13T08:59:58.568Z,10.60
2023-04-13T09:02:36.708Z,10.80
2023-04-13T09:05:13.954Z,10.70
2023-04-13T09:07:41.697Z,10.90
2023-04-13T09:10:10.499Z,10.90
2023-04-13T09:12:37.354Z,10.90
2023-04-13T09:15:06.158Z,10.90
2023-04-13T09:17:34.155Z,11.10
2023-04-13T09:20:13.409Z,11.00
2023-04-13T09:22:41.166Z,11.00
2023-04-13T09:25:20.301Z,11.20
2023-04-13T09:27:47.300Z,11.20
2023-04-13T09:30:15.659Z,11.20
2023-04-13T09:32:42.682Z,11.20
2023-04-13T09:35:10.153Z,11.30
2023-04-13T09:37:40.470Z,11.40
2023-04-13T09:40:14.074Z,11.50
2023-04-13T09:42:42.613Z,11.60
2023-04-13T09:45:10.575Z,11.40
2023-04-13T09:47:39.678Z,11.40
2023-04-13T09:50:18.204Z,11.50
2023-04-13T09:52:45.860Z,11.70
2023-04-13T09:55:20.205Z,11.80
2023-04-13T09:57:47.512Z,11.70
2023-04-13T10:00:20.618Z,11.50
2023-04-13T10:02:49.106Z,11.70
2023-04-13T10:05:17.435Z,11.90
2023-04-13T10:07:44.653Z,12.10
2023-04-13T10:10:12.859Z,12.10
2023-04-13T10:12:46.358Z,12.10
2023-04-13T10:15:28.150Z,12.20
2023-04-13T10:18:06.729Z,12.30
2023-04-13T10:20:34.628Z,12.10
2023-04-13T10:23:03.771Z,12.10
2023-04-13T10:25:33.468Z,12.00
2023-04-13T10:28:02.752Z,11.90
2023-04-13T10:30:29.994Z,11.70
2023-04-13T10:33:05.721Z,11.60
2023-04-13T10:35:37.304Z,11.80
2023-04-13T10:38:05.033Z,11.90
2023-04-13T10:40:42.916Z,11.90
2023-04-13T10:43:11.546Z,12.30
2023-04-13T10:45:39.037Z,12.20
2023-04-13T10:48:07.655Z,12.20
2023-04-13T10:50:35.155Z,12.10
2023-04-13T10:53:04.810Z,12.30
2023-04-13T10:55:32.859Z,12.20
2023-04-13T10:58:01.356Z,12.00
2023-04-13T11:00:42.260Z,12.00
2023-04-13T11:03:15.516Z,12.00
2023-04-13T11:05:44.076Z,12.20
2023-04-13T11:08:18.756Z,12.10
2023-04-13T11:10:51.560Z,12.10
2023-04-13T11:13:18.591Z,12.30
2023-04-13T11:15:48.421Z,12.50
2023-04-13T11:18:25.607Z,12.80
2023-04-13T11:20:53.171Z,13.20
2023-04-13T11:23:23.903Z,13.40
2023-04-13T11:26:01.996Z,13.50
2023-04-13T11:28:38.193Z,13.60
2023-04-13T11:31:07.652Z,13.80
2023-04-13T11:33:37.230Z,14.00
2023-04-13T11:36:07.853Z,14.60
2023-04-13T11:38:34.862Z,15.30
2023-04-13T11:41:15.233Z,15.70
2023-04-13T11:43:46.400Z,16.20
2023-04-13T11:46:23.488Z,16.50
2023-04-13T11:48:50.706Z,16.00
2023-04-13T11:51:18.635Z,16.00
2023-04-13T11:53:46.390Z,15.80
2023-04-13T11:56:14.603Z,15.40
2023-04-13T11:58:42.687Z,16.20
2023-04-13T12:01:14.382Z,17.40
2023-04-13T12:06:16.625Z,17.10
2023-04-13T12:08:44.409Z,16.30
2023-04-13T12:13:52.386Z,16.10
2023-04-13T12:19:09.855Z,17.40
2023-04-13T12:21:37.840Z,18.20
2023-04-13T12:24:07.263Z,18.00
2023-04-13T12:27:16.956Z,17.60
2023-04-13T12:29:28.385Z,17.90
2023-04-13T12:32:01.619Z,17.40
2023-04-13T12:34:30.139Z,17.70
2023-04-13T12:36:57.996Z,19.30
2023-04-13T12:39:24.930Z,19.90
2023-04-13T12:41:51.914Z,18.40
2023-04-13T12:44:18.933Z,19.50
2023-04-13T12:46:45.818Z,20.70
2023-04-13T12:49:12.812Z,18.80
2023-04-13T12:51:41.114Z,17.60
2023-04-13T12:54:13.347Z,16.60
2023-04-13T12:56:40.707Z,15.60
2023-04-13T12:59:08.050Z,14.80
2023-04-13T13:01:38.410Z,14.90
2023-04-13T13:04:06.589Z,16.70
2023-04-13T13:06:34.260Z,19.20
2023-04-13T13:09:03.145Z,19.50
2023-04-13T13:11:30.104Z,19.20
2023-04-13T13:13:57.356Z,17.60
2023-04-13T13:16:24.777Z,16.40
2023-04-13T13:18:52.830Z,15.50
2023-04-13T13:21:20.021Z,14.60
2023-04-13T13:23:47.376Z,14.30
2023-04-13T13:28:46.387Z,14.20
2023-04-13T13:31:13.279Z,15.60
2023-04-13T13:33:40.234Z,17.00
2023-04-13T13:36:07.885Z,17.40
2023-04-13T13:38:36.708Z,17.90
2023-04-13T13:41:04.073Z,18.50
2023-04-13T13:43:33.257Z,17.40
2023-04-13T13:46:00.392Z,16.30
2023-04-13T13:48:27.265Z,15.80
2023-04-13T13:50:55.883Z,15.60
2023-04-13T13:53:23.305Z,18.20
2023-04-13T13:55:50.896Z,20.20
2023-04-13T13:58:18.293Z,21.50
2023-04-13T14:00:46.708Z,21.30
2023-04-13T14:03:14.408Z,18.70
2023-04-13T14:05:43.042Z,17.50
2023-04-13T14:08:10.569Z,16.60
2023-04-13T14:10:37.754Z,16.10
2023-04-13T14:13:04.807Z,15.40
2023-04-13T14:15:31.792Z,15.00
2023-04-13T14:18:10.850Z,14.70
2023-04-13T14:20:39.606Z,14.70
2023-04-13T14:23:07.484Z,15.50
2023-04-13T14:25:34.514Z,16.10
2023-04-13T14:28:01.748Z,16.10
2023-04-13T14:30:28.895Z,15.80
2023-04-13T14:32:56.692Z,15.50
2023-04-13T14:35:25.236Z,15.20
2023-04-13T14:37:52.806Z,15.40
2023-04-13T14:40:22.605Z,15.70
2023-04-13T14:42:52.798Z,15.60
2023-04-13T14:45:20.391Z,15.20
2023-04-13T14:47:47.623Z,15.00
2023-04-13T14:50:16.353Z,14.90
2023-04-13T14:52:45.752Z,14.70
2023-04-13T14:55:13.817Z,15.30
2023-04-13T14:57:41.556Z,15.70
2023-04-13T15:00:22.601Z,15.90
2023-04-13T15:02:51.421Z,16.00
2023-04-13T15:05:19.022Z,15.60
2023-04-13T15:07:48.480Z,16.10
2023-04-13T15:10:16.756Z,16.10
2023-04-13T15:12:43.767Z,16.50
2023-04-13T15:15:11.463Z,16.50
2023-04-13T15:17:38.342Z,16.20
2023-04-13T15:20:08.045Z,15.70
2023-04-13T15:22:36.257Z,15.40
2023-04-13T15:25:05.653Z,14.90
2023-04-13T15:27:33.133Z,16.20
2023-04-13T15:30:02.663Z,17.40
2023-04-13T15:32:30.294Z,18.10
2023-04-13T15:34:57.454Z,18.50
2023-04-13T15:37:24.580Z,18.70
2023-04-13T15:39:51.627Z,19.40
2023-04-13T15:42:21.270Z,19.60
2023-04-13T15:44:48.854Z,19.70
2023-04-13T15:47:15.733Z,19.70
2023-04-13T15:49:42.897Z,19.60
2023-04-13T15:52:09.879Z,20.10
2023-04-13T15:54:37.352Z,19.90
2023-04-13T15:57:04.448Z,18.90
2023-04-13T15:59:34.716Z,19.10
2023-04-13T16:02:02.390Z,19.30
2023-04-13T16:04:29.439Z,19.60
2023-04-13T16:07:11.917Z,19.60
2023-04-13T16:09:41.758Z,19.50
2023-04-13T16:12:10.942Z,18.90
2023-04-13T16:14:41.814Z,17.80
2023-04-13T16:17:09.525Z,17.10
2023-04-13T16:19:37.597Z,16.60
2023-04-13T16:22:06.228Z,16.40
2023-04-13T16:24:33.500Z,16.30
2023-04-13T16:27:00.947Z,16.20
2023-04-13T16:29:28.724Z,15.70
2023-04-13T16:31:57.479Z,15.20
2023-04-13T16:34:26.494Z,14.90
2023-04-13T16:36:54.114Z,14.60
2023-04-13T16:39:21.772Z,14.40
2023-04-13T16:41:49.047Z,14.30
2023-04-13T16:44:16.060Z,14.20
2023-04-13T16:46:43.256Z,14.10
2023-04-13T16:49:11.740Z,14.10
2023-04-13T16:51:38.607Z,14.10
2023-04-13T16:54:06.912Z,14.10
2023-04-13T16:56:33.909Z,14.20
2023-04-13T16:59:01.737Z,14.20
2023-04-13T17:01:29.447Z,14.00
2023-04-13T17:03:56.955Z,14.00
2023-04-13T17:06:26.790Z,13.90
2023-04-13T17:08:54.056Z,13.80
2023-04-13T17:11:21.641Z,13.70
2023-04-13T17:13:48.672Z,13.60
2023-04-13T17:16:17.701Z,13.50
2023-04-13T17:18:44.728Z,13.40
2023-04-13T17:21:12.097Z,13.40
2023-04-13T17:23:41.119Z,13.40
2023-04-13T17:26:08.394Z,13.40
2023-04-13T17:28:35.648Z,13.30
2023-04-13T17:31:02.622Z,13.30
2023-04-13T17:33:29.967Z,13.20
2023-04-13T17:35:57.483Z,13.20
2023-04-13T17:38:24.381Z,13.20
2023-04-13T17:40:52.723Z,13.10
2023-04-13T17:43:20.088Z,13.00
2023-04-13T17:45:47.081Z,13.00
2023-04-13T17:48:14.153Z,13.00
2023-04-13T17:50:41.023Z,12.90
2023-04-13T17:53:08.308Z,12.90
2023-04-13T17:55:36.641Z,12.80
2023-04-13T17:58:05.588Z,12.80
2023-04-13T18:00:32.682Z,12.70
2023-04-13T18:03:01.726Z,12.60
2023-04-13T18:05:30.959Z,12.60
2023-04-13T18:07:58.592Z,12.50
2023-04-13T18:10:25.773Z,12.50
2023-04-13T18:12:52.874Z,12.50
2023-04-13T18:15:21.231Z,12.40
2023-04-13T18:17:48.169Z,12.40
2023-04-13T18:20:15.122Z,12.30
2023-04-13T18:22:43.011Z,12.30
2023-04-13T18:25:10.214Z,12.30
2023-04-13T18:27:37.526Z,12.30
2023-04-13T18:30:05.368Z,12.20
2023-04-13T18:32:34.840Z,12.20
2023-04-13T18:35:03.341Z,12.20
2023-04-13T18:37:30.578Z,12.20
2023-04-13T18:39:57.861Z,12.10
2023-04-13T18:42:25.223Z,12.10
2023-04-13T18:44:52.166Z,12.10
2023-04-13T18:47:20.705Z,12.00
2023-04-13T18:49:49.466Z,12.00
2023-04-13T18:52:16.749Z,11.90
2023-04-13T18:54:43.749Z,11.90
2023-04-13T18:57:11.104Z,11.80
2023-04-13T18:59:39.132Z,11.80
2023-04-13T19:02:06.404Z,11.80
2023-04-13T19:04:34.804Z,11.80
2023-04-13T19:07:08.540Z,11.80
2023-04-13T19:09:38.257Z,11.80
2023-04-13T19:12:06.624Z,11.80
2023-04-13T19:14:33.780Z,11.80
2023-04-13T19:17:01.118Z,11.80
2023-04-13T19:19:28.052Z,11.70
2023-04-13T19:21:56.673Z,11.60
2023-04-13T19:24:25.179Z,11.50
2023-04-13T19:26:52.109Z,11.50
2023-04-13T19:29:21.050Z,11.40
2023-04-13T19:31:50.126Z,11.40
2023-04-13T19:34:17.102Z,11.40
2023-04-13T19:36:44.023Z,11.30
2023-04-13T19:39:11.080Z,11.30
2023-04-13T19:41:41.983Z,11.30
2023-04-13T19:44:09.153Z,11.20
2023-04-13T19:46:37.302Z,11.20
2023-04-13T19:49:04.377Z,11.10
2023-04-13T19:51:34.965Z,11.10
2023-04-13T19:54:02.901Z,11.10
2023-04-13T19:56:30.775Z,11.00
2023-04-13T19:58:59.199Z,11.00
2023-04-13T20:01:26.467Z,10.90
2023-04-13T20:03:53.437Z,10.90
2023-04-13T20:06:20.654Z,10.80
2023-04-13T20:08:47.627Z,10.80
2023-04-13T20:11:14.805Z,10.80
2023-04-13T20:13:41.865Z,10.80
2023-04-13T20:16:11.146Z,10.80
2023-04-13T20:18:38.294Z,10.80
2023-04-13T20:21:06.476Z,10.70
2023-04-13T20:23:34.504Z,10.70
2023-04-13T20:26:01.762Z,10.60
2023-04-13T20:28:28.690Z,10.60
2023-04-13T20:30:56.377Z,10.60
2023-04-13T20:33:24.773Z,10.70
2023-04-13T20:35:52.913Z,10.60
2023-04-13T20:38:19.777Z,10.50
2023-04-13T20:40:48.263Z,10.40
2023-04-13T20:43:16.024Z,10.40
2023-04-13T20:45:46.101Z,10.40
2023-04-13T20:50:48.393Z,10.20
2023-04-13T20:53:17.277Z,10.20
2023-04-13T20:55:44.247Z,10.20
2023-04-13T20:58:11.432Z,10.20
2023-04-13T21:00:38.746Z,10.10
2023-04-13T21:03:08.982Z,10.10
2023-04-13T21:05:36.603Z,10.10
2023-04-13T21:08:05.768Z,10.10
2023-04-13T21:10:33.285Z,10.10
2023-04-13T21:13:01.675Z,10.10
2023-04-13T21:15:28.879Z,10.20
2023-04-13T21:17:56.190Z,10.20
2023-04-13T21:20:24.253Z,10.10
2023-04-13T21:22:51.106Z,10.10
2023-04-13T21:25:19.706Z,10.10
2023-04-13T21:27:46.507Z,10.00
2023-04-13T21:30:14.598Z,10.00
2023-04-13T21:32:41.420Z,9.90
2023-04-13T21:35:09.763Z,9.80
2023-04-13T21:37:36.711Z,9.70
2023-04-13T21:40:04.448Z,9.70
2023-04-13T21:42:32.747Z,9.70
2023-04-13T21:44:59.969Z,9.60
2023-04-13T21:47:27.017Z,9.60
2023-04-13T21:49:54.383Z,9.50
2023-04-13T21:52:21.187Z,9.50
2023-04-13T21:54:50.378Z,9.50
2023-04-13T21:57:18.476Z,9.50
2023-04-13T21:59:47.052Z,9.50
2023-04-13T22:02:14.020Z,9.50
2023-04-13T22:04:41.401Z,9.50
2023-04-13T22:07:08.268Z,9.50
2023-04-13T22:09:36.044Z,9.40
2023-04-13T22:12:03.300Z,9.40
2023-04-13T22:14:30.341Z,9.40
2023-04-13T22:16:59.469Z,9.30
2023-04-13T22:19:26.682Z,9.50
2023-04-13T22:21:53.580Z,9.30
2023-04-13T22:24:20.930Z,9.30
2023-04-13T22:26:47.986Z,9.30
2023-04-13T22:29:15.438Z,9.20
2023-04-13T22:31:42.331Z,9.20
2023-04-13T22:34:11.505Z,9.10
2023-04-13T22:36:38.456Z,9.10
2023-04-13T22:39:05.314Z,9.10
2023-04-13T22:41:32.205Z,9.00
2023-04-13T22:43:59.328Z,9.10
2023-04-13T22:46:26.402Z,9.10
2023-04-13T22:48:53.722Z,9.10
2023-04-13T22:51:22.092Z,9.10
2023-04-13T22:53:49.274Z,9.10
2023-04-13T22:56:16.256Z,9.10
2023-04-13T22:58:43.585Z,9.20
2023-04-13T23:01:11.858Z,9.10
2023-04-13T23:03:39.249Z,9.10
2023-04-13T23:06:06.932Z,9.00
2023-04-13T23:08:35.672Z,9.00
2023-04-13T23:11:08.924Z,9.00
2023-04-13T23:13:37.057Z,9.00
2023-04-13T23:16:05.860Z,9.00
2023-04-13T23:18:33.281Z,9.00
2023-04-13T23:21:08.026Z,9.10
2023-04-13T23:23:36.769Z,9.00
2023-04-13T23:26:03.656Z,9.00
2023-04-13T23:28:30.952Z,9.00
2023-04-13T23:31:03.466Z,8.90
2023-04-13T23:33:30.385Z,8.90
2023-04-13T23:35:57.310Z,8.90
2023-04-13T23:38:24.524Z,8.80
2023-04-13T23:40:53.605Z,8.80
2023-04-13T23:43:21.524Z,8.70
2023-04-13T23:45:51.221Z,8.70
2023-04-13T23:48:19.397Z,8.80
2023-04-13T23:50:46.432Z,8.90
2023-04-13T23:53:13.783Z,8.90
2023-04-13T23:55:40.907Z,8.90
2023-04-13T23:58:09.263Z,9.00
